Time;durP1;ratioP1;P1;durP2;ratioP2;P2;SDS_P1;SDS_P2;PMS_P1;PMS_P2;Temp;Humidity;BMP_temperature;BMP_pressure;BME280_temperature;BME280_humidity;BME280_pressure;Samples;Min_cycle;Max_cycle;Signal;HPM_P1;HPM_P2
2024/02/26 00:00:34;;;;;;;2.63;0.82;;;;;;;14.33;43.01;99455.13;4927209;29;20388;-66
2024/02/26 00:03:00;;;;;;;2.15;0.80;;;;;;;14.38;43.75;99451.84;4928061;29;20046;-67
2024/02/26 00:05:25;;;;;;;3.63;1.10;;;;;;;14.35;44.21;99454.97;4913127;29;20400;-67
2024/02/26 00:07:51;;;;;;;1.75;0.90;;;;;;;14.36;44.97;99454.75;4927262;29;20052;-66
2024/02/26 00:10:16;;;;;;;1.48;1.10;;;;;;;14.36;44.65;99454.75;4944466;29;20119;-66
2024/02/26 00:12:41;;;;;;;0.82;0.65;;;;;;;14.33;44.00;99460.50;4928351;29;20544;-66
2024/02/26 00:15:08;;;;;;;1.73;0.85;;;;;;;14.33;44.53;99455.13;4927125;29;20072;-66
2024/02/26 00:17:33;;;;;;;2.53;0.90;;;;;;;14.29;44.09;99448.41;4926619;29;20047;-66
2024/02/26 00:20:00;;;;;;;2.78;1.10;;;;;;;14.30;44.47;99451.94;4929300;29;20396;-67
2024/02/26 00:22:26;;;;;;;1.27;0.90;;;;;;;14.28;44.61;99446.75;4929064;29;20046;-67
2024/02/26 00:24:51;;;;;;;2.53;0.70;;;;;;;14.24;44.21;99445.44;4906582;29;20040;-66
2024/02/26 00:27:16;;;;;;;1.42;0.88;;;;;;;14.24;44.39;99445.44;4920256;29;20084;-66
2024/02/26 00:29:42;;;;;;;5.72;1.23;;;;;;;14.27;44.17;99449.59;4918721;29;20505;-66
2024/02/26 00:32:07;;;;;;;1.92;0.60;;;;;;;14.25;44.62;99446.28;4918402;29;20119;-66
2024/02/26 00:34:33;;;;;;;4.78;0.80;;;;;;;14.26;44.89;99443.41;4902661;29;20043;-66
2024/02/26 00:36:58;;;;;;;0.75;0.70;;;;;;;14.24;44.69;99442.75;4918505;29;20127;-66
2024/02/26 00:39:23;;;;;;;1.58;0.63;;;;;;;14.22;45.10;99447.47;4902833;29;20024;-66
2024/02/26 00:41:49;;;;;;;1.50;0.95;;;;;;;14.22;44.76;99447.47;4902792;29;20040;-65
2024/02/26 00:44:14;;;;;;;1.40;0.70;;;;;;;14.21;44.96;99450.38;4919405;29;20153;-66
2024/02/26 00:46:39;;;;;;;1.63;0.57;;;;;;;14.16;45.16;99442.00;4919816;29;20072;-65
2024/02/26 00:49:05;;;;;;;1.33;0.50;;;;;;;14.14;45.47;99438.66;4919885;29;20040;-65
2024/02/26 00:51:30;;;;;;;1.98;1.05;;;;;;;14.09;44.98;99441.94;4920578;29;20036;-65
2024/02/26 00:53:56;;;;;;;1.52;0.88;;;;;;;14.05;45.49;99435.22;4920812;29;20032;-64
2024/02/26 00:56:21;;;;;;;3.72;0.77;;;;;;;14.05;45.76;99439.78;4920122;29;20064;-64
2024/02/26 00:58:47;;;;;;;0.80;0.70;;;;;;;14.02;44.82;99433.75;4921804;29;20043;-65
2024/02/26 01:01:12;;;;;;;3.90;0.63;;;;;;;13.99;46.03;99435.97;4921503;29;20040;-66
2024/02/26 01:03:37;;;;;;;1.83;0.90;;;;;;;13.98;45.38;99434.31;4917844;29;20505;-65
2024/02/26 01:06:03;;;;;;;0.75;0.70;;;;;;;13.94;45.44;99435.69;4917979;29;20032;-66
2024/02/26 01:08:28;;;;;;;1.63;0.95;;;;;;;13.92;45.99;99435.88;4901897;29;20032;-66
2024/02/26 01:10:54;;;;;;;1.48;0.90;;;;;;;13.90;46.01;99437.09;4917881;29;20044;-65
2024/02/26 01:13:19;;;;;;;0.70;0.50;;;;;;;13.85;45.80;99429.56;4920174;29;20032;-66
2024/02/26 01:15:44;;;;;;;1.00;0.60;;;;;;;13.86;46.61;99441.16;4919776;29;20122;-67
2024/02/26 01:18:10;;;;;;;5.47;0.82;;;;;;;13.83;45.84;99433.44;4920637;29;20038;-65
2024/02/26 01:20:36;;;;;;;4.28;1.00;;;;;;;13.79;46.02;99432.97;4901863;29;20115;-65
2024/02/26 01:23:02;;;;;;;0.55;0.55;;;;;;;13.79;45.53;99432.16;4918750;29;20516;-65
2024/02/26 01:25:27;;;;;;;3.60;0.60;;;;;;;13.79;45.22;99441.06;4917547;29;20043;-65
2024/02/26 01:27:53;;;;;;;2.38;1.10;;;;;;;13.82;45.37;99440.69;4917189;29;20091;-65
2024/02/26 01:30:18;;;;;;;1.35;0.70;;;;;;;13.84;45.96;99440.53;4917492;29;20040;-66
2024/02/26 01:32:43;;;;;;;1.35;0.90;;;;;;;13.78;46.49;99433.19;4918747;29;20385;-66
2024/02/26 01:35:11;;;;;;;1.83;0.77;;;;;;;13.77;45.65;99435.03;4917830;29;20136;-67
2024/02/26 01:37:37;;;;;;;3.00;0.60;;;;;;;13.74;45.83;99431.84;4937764;29;20153;-67
2024/02/26 01:40:05;;;;;;;3.83;0.77;;;;;;;13.70;45.83;99430.56;4920339;29;20043;-67
2024/02/26 01:42:32;;;;;;;1.85;0.73;;;;;;;13.68;46.18;99421.84;4936551;29;20469;-67
2024/02/26 01:44:57;;;;;;;2.40;1.35;;;;;;;13.68;46.50;99432.63;4936602;29;20024;-67
2024/02/26 01:47:23;;;;;;;5.55;0.90;;;;;;;13.67;45.51;99430.94;4937428;29;20459;-67
2024/02/26 01:49:49;;;;;;;0.70;0.68;;;;;;;13.67;45.89;99442.53;4920362;29;20039;-67
2024/02/26 01:52:14;;;;;;;0.82;0.68;;;;;;;13.66;47.12;99440.00;4936239;29;20031;-67
2024/02/26 01:54:40;;;;;;;1.30;0.80;;;;;;;13.65;47.21;99438.38;4920022;29;20036;-67
2024/02/26 01:57:06;;;;;;;1.10;1.00;;;;;;;13.65;47.44;99436.47;4920576;29;20619;-68
2024/02/26 01:59:32;;;;;;;1.58;0.77;;;;;;;13.61;47.01;99431.66;4936111;29;20040;-67
2024/02/26 02:01:59;;;;;;;2.05;0.75;;;;;;;13.61;46.45;99437.03;4936607;29;20035;-67
2024/02/26 02:04:24;;;;;;;0.65;0.50;;;;;;;13.58;46.89;99440.09;4936580;29;20087;-68
2024/02/26 02:06:50;;;;;;;1.05;0.70;;;;;;;13.53;46.36;99427.19;4936041;29;20027;-68
2024/02/26 02:09:16;;;;;;;2.20;0.98;;;;;;;13.53;46.97;99429.88;4935837;29;20160;-68
2024/02/26 02:11:41;;;;;;;1.05;0.90;;;;;;;13.50;47.96;99424.88;4920073;29;20056;-68
2024/02/26 02:14:07;;;;;;;0.60;0.60;;;;;;;13.47;46.42;99419.00;4935979;29;20171;-68
2024/02/26 02:16:32;;;;;;;1.50;0.90;;;;;;;13.47;47.84;99419.00;4937097;29;20043;-68
2024/02/26 02:18:58;;;;;;;2.92;0.70;;;;;;;13.45;47.40;99421.06;4951873;29;20028;-68
2024/02/26 02:21:24;;;;;;;3.88;0.90;;;;;;;13.41;47.79;99421.41;4936897;29;20051;-67
2024/02/26 02:23:49;;;;;;;1.35;0.60;;;;;;;13.41;47.03;99420.56;4935680;29;20028;-68
2024/02/26 02:26:15;;;;;;;2.20;0.90;;;;;;;13.38;46.95;99410.19;4937020;29;20039;-67
2024/02/26 02:28:41;;;;;;;1.90;0.68;;;;;;;13.36;47.10;99423.81;4935974;29;20055;-68
2024/02/26 02:31:06;;;;;;;3.20;0.77;;;;;;;13.36;47.66;99423.81;4935726;29;20048;-67
2024/02/26 02:33:32;;;;;;;3.05;0.95;;;;;;;13.37;47.26;99424.66;4935493;29;20411;-68
2024/02/26 02:35:58;;;;;;;1.60;0.52;;;;;;;13.35;47.89;99430.22;4935614;29;20036;-68
2024/02/26 02:38:25;;;;;;;0.68;0.55;;;;;;;13.31;47.11;99420.84;4919590;29;20039;-68
2024/02/26 02:40:51;;;;;;;1.48;0.65;;;;;;;13.29;47.57;99430.94;4935698;29;20062;-68
2024/02/26 02:43:17;;;;;;;0.75;0.47;;;;;;;13.32;46.94;99433.25;4935758;29;20115;-68
2024/02/26 02:45:42;;;;;;;0.47;0.47;;;;;;;13.30;48.29;99434.47;4935149;29;20028;-68
2024/02/26 02:48:07;;;;;;;2.05;0.55;;;;;;;13.24;48.14;99419.88;4935398;29;20518;-68
2024/02/26 02:50:33;;;;;;;3.20;1.42;;;;;;;13.23;48.02;99428.94;4935589;29;20459;-68
2024/02/26 02:52:58;;;;;;;0.68;0.65;;;;;;;13.21;48.25;99427.47;4935468;29;20038;-68
2024/02/26 02:55:23;;;;;;;2.20;0.80;;;;;;;13.24;47.68;99436.00;4935247;29;20039;-68
2024/02/26 02:57:49;;;;;;;0.95;0.80;;;;;;;13.25;48.68;99432.31;4935177;29;20038;-68
2024/02/26 03:00:14;;;;;;;0.60;0.52;;;;;;;13.22;47.49;99430.00;4936967;29;20059;-68
2024/02/26 03:02:40;;;;;;;1.65;1.52;;;;;;;13.25;47.29;99429.63;4935316;29;20043;-69
2024/02/26 03:05:05;;;;;;;1.95;0.80;;;;;;;13.22;48.81;99427.31;4935241;29;20024;-68
2024/02/26 03:07:31;;;;;;;3.65;0.88;;;;;;;13.21;47.58;99424.78;4935405;29;20086;-69
2024/02/26 03:09:56;;;;;;;1.65;0.65;;;;;;;13.16;47.96;99425.31;4919540;29;20099;-69
2024/02/26 03:12:22;;;;;;;1.02;0.82;;;;;;;13.11;48.96;99427.72;4951549;29;20036;-69
2024/02/26 03:14:47;;;;;;;1.80;0.63;;;;;;;13.08;47.71;99425.41;4935677;29;20079;-70
2024/02/26 03:17:13;;;;;;;2.33;0.73;;;;;;;13.07;48.86;99422.84;4935860;29;20036;-70
2024/02/26 03:19:38;;;;;;;2.53;1.00;;;;;;;13.07;47.89;99433.59;4935399;29;20042;-70
2024/02/26 03:22:04;;;;;;;2.08;1.02;;;;;;;13.02;48.22;99431.44;4935307;29;20046;-70
2024/02/26 03:24:29;;;;;;;1.55;1.00;;;;;;;12.95;48.53;99414.38;4951660;29;20167;-70
2024/02/26 03:26:54;;;;;;;2.20;0.73;;;;;;;12.97;48.39;99422.25;4937279;29;20043;-70
2024/02/26 03:29:20;;;;;;;4.95;1.13;;;;;;;12.94;48.46;99423.44;4935780;29;20039;-70
2024/02/26 03:31:45;;;;;;;0.85;0.60;;;;;;;12.96;48.34;99426.78;4935891;29;20031;-69
2024/02/26 03:34:12;;;;;;;2.40;0.88;;;;;;;12.97;48.57;99423.09;4935304;29;20140;-69
2024/02/26 03:36:37;;;;;;;3.05;0.90;;;;;;;12.95;49.42;99425.13;4951652;29;20040;-70
2024/02/26 03:39:07;;;;;;;0.70;0.70;;;;;;;12.97;49.20;99423.09;4936030;29;20119;-70
2024/02/26 03:41:33;;;;;;;1.95;0.90;;;;;;;12.99;49.50;99431.81;4936773;29;20054;-70
2024/02/26 03:43:58;;;;;;;1.48;0.82;;;;;;;12.99;49.41;99431.81;4936965;29;20503;-70
2024/02/26 03:46:23;;;;;;;0.95;0.80;;;;;;;13.01;49.49;99435.16;4935289;29;20411;-70
2024/02/26 03:48:49;;;;;;;2.67;0.57;;;;;;;12.99;49.17;99421.06;4935329;29;20044;-70
2024/02/26 03:51:14;;;;;;;0.47;0.47;;;;;;;13.02;49.20;99434.13;4935250;29;20043;-70
2024/02/26 03:53:39;;;;;;;1.75;0.77;;;;;;;13.00;48.90;99422.75;4936630;29;20032;-70
2024/02/26 03:56:05;;;;;;;1.63;0.85;;;;;;;13.01;48.93;99427.06;4935943;29;20063;-70
2024/02/26 03:58:31;;;;;;;0.73;0.60;;;;;;;13.01;49.84;99423.59;4938829;29;20455;-70
2024/02/26 04:00:56;;;;;;;0.50;0.50;;;;;;;12.98;49.36;99424.75;4938856;29;20028;-70
2024/02/26 04:03:22;;;;;;;0.68;0.45;;;;;;;12.96;49.14;99423.25;4938819;29;20032;-70
2024/02/26 04:05:47;;;;;;;1.85;0.60;;;;;;;12.96;48.54;99429.47;4938507;29;20123;-70
2024/02/26 04:08:13;;;;;;;0.60;0.50;;;;;;;12.90;49.41;99416.75;4938580;29;20059;-70
2024/02/26 04:10:38;;;;;;;0.93;0.50;;;;;;;12.89;49.94;99415.09;4938813;29;20031;-70
2024/02/26 04:13:05;;;;;;;2.08;0.95;;;;;;;12.91;49.38;99421.13;4938477;29;20182;-70
2024/02/26 04:15:31;;;;;;;1.40;0.60;;;;;;;12.90;49.44;99426.69;4938578;29;20032;-70
2024/02/26 04:17:56;;;;;;;3.55;0.60;;;;;;;12.92;49.85;99430.03;4938250;29;20042;-70
2024/02/26 04:20:21;;;;;;;1.30;0.50;;;;;;;12.88;49.31;99434.91;4938441;29;20038;-70
2024/02/26 04:22:47;;;;;;;0.70;0.60;;;;;;;12.89;49.32;99444.66;4939498;29;20110;-70
2024/02/26 04:25:12;;;;;;;1.55;0.30;;;;;;;12.87;49.37;99430.53;4938837;29;20063;-70
2024/02/26 04:27:38;;;;;;;0.43;0.40;;;;;;;12.90;50.64;99443.63;4938048;29;20032;-70
2024/02/26 04:30:04;;;;;;;0.65;0.43;;;;;;;12.88;49.67;99440.28;4938162;29;20039;-70
2024/02/26 04:32:30;;;;;;;0.90;0.52;;;;;;;12.92;49.83;99444.31;4939117;29;20042;-69
2024/02/26 04:34:55;;;;;;;0.93;0.93;;;;;;;12.92;50.13;99441.63;4938706;29;20035;-69
2024/02/26 04:37:20;;;;;;;1.60;0.70;;;;;;;12.93;50.35;99442.41;4937594;29;20059;-68
2024/02/26 04:39:46;;;;;;;0.75;0.60;;;;;;;12.92;50.14;99447.00;4937584;29;20036;-69
2024/02/26 04:42:11;;;;;;;0.68;0.47;;;;;;;12.92;49.72;99436.25;4938747;29;20121;-68
2024/02/26 04:44:36;;;;;;;0.57;0.40;;;;;;;12.97;49.17;99447.28;4937470;29;20039;-68
2024/02/26 04:47:02;;;;;;;0.60;0.60;;;;;;;12.99;49.64;99436.34;4953153;29;20293;-68
2024/02/26 04:49:27;;;;;;;0.60;0.60;;;;;;;13.01;50.60;99451.28;4937254;29;20039;-68
2024/02/26 04:51:53;;;;;;;1.08;0.60;;;;;;;13.00;50.37;99444.25;4937540;29;20040;-68
2024/02/26 04:54:19;;;;;;;0.55;0.55;;;;;;;13.02;49.96;99442.19;4938468;29;20423;-67
2024/02/26 04:56:44;;;;;;;0.50;0.30;;;;;;;13.03;50.53;99437.66;4937118;29;20035;-68
2024/02/26 04:59:09;;;;;;;1.77;0.57;;;;;;;13.03;50.29;99446.56;4937188;29;20163;-67
2024/02/26 05:01:36;;;;;;;0.50;0.50;;;;;;;13.05;50.36;99457.97;4938308;29;20114;-67
2024/02/26 05:04:03;;;;;;;1.27;0.57;;;;;;;13.05;49.78;99462.50;4938080;29;20126;-67
2024/02/26 05:06:28;;;;;;;0.45;0.45;;;;;;;13.08;49.99;99465.72;4937019;29;20491;-67
2024/02/26 05:08:53;;;;;;;0.40;0.40;;;;;;;13.05;50.77;99462.50;4937770;29;20032;-67
2024/02/26 05:11:19;;;;;;;0.65;0.40;;;;;;;13.06;50.66;99473.09;4936853;29;20522;-67
2024/02/26 05:13:45;;;;;;;0.35;0.35;;;;;;;13.11;50.02;99475.28;4936865;29;20405;-68
2024/02/26 05:16:10;;;;;;;1.75;0.60;;;;;;;13.09;50.57;99463.88;4936847;29;20024;-67
2024/02/26 05:18:36;;;;;;;1.35;0.60;;;;;;;13.08;50.53;99471.09;4936629;29;20054;-67
2024/02/26 05:21:03;;;;;;;0.93;0.60;;;;;;;13.08;49.36;99473.78;4938054;29;20038;-67
2024/02/26 05:23:28;;;;;;;1.63;0.60;;;;;;;13.09;50.72;99485.38;4937142;29;20039;-68
2024/02/26 05:25:54;;;;;;;0.60;0.50;;;;;;;13.10;50.57;99484.34;4921265;29;20038;-69
2024/02/26 05:28:20;;;;;;;0.70;0.43;;;;;;;13.04;50.60;99488.56;4936966;29;20036;-69
2024/02/26 05:30:45;;;;;;;0.75;0.60;;;;;;;13.04;50.02;99502.00;4937211;29;20406;-69
2024/02/26 05:33:11;;;;;;;3.65;0.68;;;;;;;13.01;49.93;99496.97;4938584;29;20463;-69
2024/02/26 05:35:37;;;;;;;1.77;1.00;;;;;;;12.99;49.84;99504.38;4939071;29;20040;-69
2024/02/26 05:38:02;;;;;;;0.85;0.60;;;;;;;12.95;50.15;99488.78;4937652;29;20046;-69
2024/02/26 05:40:27;;;;;;;0.88;0.43;;;;;;;12.92;50.72;99497.22;4953032;29;20516;-69
2024/02/26 05:42:53;;;;;;;1.00;0.57;;;;;;;12.88;49.99;99498.56;4938160;29;20064;-70
2024/02/26 05:45:18;;;;;;;0.45;0.45;;;;;;;12.86;51.23;99506.81;4936722;29;20050;-69
2024/02/26 05:47:44;;;;;;;0.75;0.65;;;;;;;12.82;51.01;99502.78;4936990;29;20036;-69
2024/02/26 05:50:12;;;;;;;1.83;0.63;;;;;;;12.77;49.95;99508.72;4937928;29;20156;-69
2024/02/26 05:52:40;;;;;;;2.38;0.85;;;;;;;12.78;50.72;99509.53;4936810;29;20036;-69
2024/02/26 05:55:06;;;;;;;1.33;0.70;;;;;;;12.76;51.32;99512.41;4936839;29;20055;-69
2024/02/26 05:57:33;;;;;;;0.75;0.70;;;;;;;12.76;50.78;99527.69;4936908;29;20042;-69
2024/02/26 06:00:02;;;;;;;1.60;0.90;;;;;;;12.76;51.12;99519.59;4936781;29;20403;-70
2024/02/26 06:02:27;;;;;;;2.40;0.70;;;;;;;12.73;50.89;99523.50;4937207;29;20047;-69
2024/02/26 06:04:53;;;;;;;2.42;0.70;;;;;;;12.73;50.93;99538.81;4938215;29;20457;-70
2024/02/26 06:07:18;;;;;;;1.23;0.70;;;;;;;12.70;50.95;99537.28;4936576;29;20031;-70
2024/02/26 06:09:43;;;;;;;1.00;0.68;;;;;;;12.70;50.54;99536.47;4936549;29;20035;-70
2024/02/26 06:12:09;;;;;;;1.85;0.82;;;;;;;12.71;50.63;99548.84;4937573;29;20518;-70
2024/02/26 06:14:34;;;;;;;2.05;1.17;;;;;;;12.69;50.27;99553.56;4937187;29;20051;-70
2024/02/26 06:16:59;;;;;;;1.50;0.80;;;;;;;12.67;50.46;99550.25;4936128;29;20031;-70
2024/02/26 06:19:25;;;;;;;6.00;1.00;;;;;;;12.64;51.12;99542.53;4936997;29;20031;-70
2024/02/26 06:21:50;;;;;;;1.10;0.93;;;;;;;12.63;50.74;99544.38;4936446;29;20065;-70
2024/02/26 06:24:16;;;;;;;2.40;0.93;;;;;;;12.63;50.61;99555.13;4937055;29;20036;-70
2024/02/26 06:26:41;;;;;;;1.52;1.00;;;;;;;12.62;51.14;99557.94;4937368;29;20039;-70
2024/02/26 06:29:06;;;;;;;1.25;1.00;;;;;;;12.62;50.94;99563.31;4936633;29;20043;-70
2024/02/26 06:31:32;;;;;;;3.67;1.50;;;;;;;12.63;50.55;99559.63;4935796;29;20035;-70
2024/02/26 06:33:57;;;;;;;2.25;1.33;;;;;;;12.60;51.04;99565.34;4937136;29;20048;-70
2024/02/26 06:36:23;;;;;;;4.07;1.67;;;;;;;12.60;51.49;99570.72;4936033;29;20047;-70
2024/02/26 06:38:49;;;;;;;3.17;1.80;;;;;;;12.58;51.09;99572.75;4935908;29;20083;-70
2024/02/26 06:41:14;;;;;;;3.97;1.88;;;;;;;12.56;50.58;99574.78;4936218;29;20039;-70
2024/02/26 06:43:40;;;;;;;3.67;1.50;;;;;;;12.55;51.10;99579.31;4937193;29;20402;-70
2024/02/26 06:46:06;;;;;;;4.45;1.67;;;;;;;12.57;50.71;99584.50;4937434;29;20090;-70
2024/02/26 06:48:31;;;;;;;3.83;1.98;;;;;;;12.55;51.40;99578.47;4935897;29;20031;-70
2024/02/26 06:50:56;;;;;;;3.10;1.88;;;;;;;12.57;51.23;99587.19;4937865;29;20111;-70
2024/02/26 06:53:22;;;;;;;3.38;2.00;;;;;;;12.57;51.30;99582.66;4935898;29;20039;-69
2024/02/26 06:55:49;;;;;;;2.95;1.60;;;;;;;12.59;50.57;99585.19;4937485;29;20570;-69
2024/02/26 06:58:14;;;;;;;3.83;1.83;;;;;;;12.62;51.64;99580.28;4952321;29;20032;-69
2024/02/26 07:00:40;;;;;;;4.70;2.08;;;;;;;12.59;50.93;99583.31;4924532;29;20048;-70
2024/02/26 07:03:05;;;;;;;3.40;1.85;;;;;;;12.63;51.76;99578.44;4917806;29;20527;-69
2024/02/26 07:05:31;;;;;;;7.15;2.42;;;;;;;12.63;51.54;99587.34;4915870;29;20504;-69
2024/02/26 07:07:56;;;;;;;2.65;1.70;;;;;;;12.62;51.20;99591.03;4917366;29;20028;-68
2024/02/26 07:10:21;;;;;;;4.00;2.05;;;;;;;12.68;51.49;99593.03;4917735;29;20095;-67
2024/02/26 07:12:47;;;;;;;5.90;1.77;;;;;;;12.70;51.07;99603.63;4916231;29;20032;-67
2024/02/26 07:15:13;;;;;;;3.35;1.80;;;;;;;12.66;51.14;99608.50;4917253;29;20036;-68
2024/02/26 07:17:41;;;;;;;2.58;1.73;;;;;;;12.67;51.38;99603.97;4916562;29;20047;-68
2024/02/26 07:20:08;;;;;;;2.28;1.88;;;;;;;12.68;51.29;99613.69;4916585;29;20501;-67
2024/02/26 07:22:34;;;;;;;6.43;1.95;;;;;;;12.66;51.89;99615.72;4917876;29;20032;-67
2024/02/26 07:24:59;;;;;;;3.72;2.20;;;;;;;12.69;51.25;99618.06;4917011;28;20020;-67
2024/02/26 07:27:24;;;;;;;5.25;2.13;;;;;;;12.72;50.52;99623.09;4917396;29;20024;-68
2024/02/26 07:29:50;;;;;;;3.72;2.10;;;;;;;12.74;50.66;99626.44;4915589;29;20039;-68
2024/02/26 07:32:15;;;;;;;4.30;2.13;;;;;;;12.77;50.65;99634.16;4919396;29;20036;-67
2024/02/26 07:34:44;;;;;;;4.45;2.10;;;;;;;12.75;51.15;99628.13;4919213;29;20048;-68
2024/02/26 07:37:11;;;;;;;3.67;2.47;;;;;;;12.75;51.84;99628.13;4904003;29;20079;-68
2024/02/26 07:39:36;;;;;;;4.05;2.17;;;;;;;12.76;51.65;99629.78;4919274;29;20028;-68
2024/02/26 07:42:03;;;;;;;3.10;2.15;;;;;;;12.76;51.06;99629.78;4920637;29;20064;-68
2024/02/26 07:44:28;;;;;;;2.58;1.92;;;;;;;12.79;51.80;99634.81;4903898;29;20477;-69
2024/02/26 07:46:54;;;;;;;2.35;1.70;;;;;;;12.79;50.87;99640.19;4920800;29;20059;-69
2024/02/26 07:49:19;;;;;;;3.40;1.77;;;;;;;12.78;51.32;99636.69;4919501;29;20111;-68
2024/02/26 07:51:45;;;;;;;6.03;2.50;;;;;;;12.79;50.67;99640.19;4903364;29;20044;-69
2024/02/26 07:54:10;;;;;;;4.25;2.10;;;;;;;12.77;51.66;99647.59;4903707;29;20124;-68
2024/02/26 07:56:35;;;;;;;2.55;2.13;;;;;;;12.79;50.75;99650.94;4919116;29;20048;-68
2024/02/26 07:59:01;;;;;;;2.75;1.73;;;;;;;12.81;51.61;99659.69;4918990;29;20046;-68
2024/02/26 08:01:26;;;;;;;2.22;1.73;;;;;;;12.79;50.54;99651.78;4903375;29;20044;-68
2024/02/26 08:03:53;;;;;;;2.33;1.45;;;;;;;12.81;51.43;99651.63;4920197;29;20107;-67
2024/02/26 08:06:18;;;;;;;1.73;1.52;;;;;;;12.80;51.45;99655.31;4918808;29;20040;-67
2024/02/26 08:08:43;;;;;;;1.88;1.70;;;;;;;12.83;51.69;99655.81;4918545;29;20036;-67
2024/02/26 08:11:09;;;;;;;2.15;1.90;;;;;;;12.86;51.25;99665.38;4919759;29;20044;-67
2024/02/26 08:13:35;;;;;;;2.22;1.20;;;;;;;12.90;51.04;99669.38;4902803;29;20133;-67
2024/02/26 08:16:01;;;;;;;2.33;1.60;;;;;;;12.89;50.89;99667.72;4902878;29;20391;-67
2024/02/26 08:18:26;;;;;;;3.78;1.63;;;;;;;12.86;51.45;99670.75;4919542;29;20119;-67
2024/02/26 08:20:51;;;;;;;2.10;1.48;;;;;;;12.88;51.56;99676.78;4902590;29;20118;-67
2024/02/26 08:23:17;;;;;;;1.52;1.40;;;;;;;12.88;51.70;99682.16;4919632;28;20404;-67
2024/02/26 08:25:42;;;;;;;4.47;1.90;;;;;;;12.89;51.76;99683.84;4918459;29;20423;-65
2024/02/26 08:28:08;;;;;;;3.58;1.75;;;;;;;12.90;51.38;99685.50;4918266;29;20046;-67
2024/02/26 08:30:34;;;;;;;1.55;1.40;;;;;;;12.92;50.44;99688.88;4918067;29;20063;-67
2024/02/26 08:32:59;;;;;;;1.55;1.23;;;;;;;12.96;50.78;99690.19;4918782;29;20043;-69
2024/02/26 08:35:25;;;;;;;4.43;1.15;;;;;;;12.96;50.94;99695.56;4902778;29;20044;-69
2024/02/26 08:37:50;;;;;;;1.73;1.15;;;;;;;12.97;51.54;99691.03;4919123;29;20040;-69
2024/02/26 08:40:16;;;;;;;3.08;1.48;;;;;;;12.96;51.43;99706.31;4903089;29;20032;-69
2024/02/26 08:42:41;;;;;;;2.22;1.27;;;;;;;12.91;51.33;99703.31;4918741;29;20032;-69
2024/02/26 08:45:08;;;;;;;4.20;0.95;;;;;;;12.89;51.50;99704.50;4903220;29;20028;-70
2024/02/26 08:47:33;;;;;;;3.72;1.08;;;;;;;12.84;51.25;99697.78;4919048;29;20051;-69
2024/02/26 08:49:58;;;;;;;2.45;1.00;;;;;;;12.83;51.16;99706.03;4919493;29;20036;-70
2024/02/26 08:52:24;;;;;;;2.03;1.00;;;;;;;12.81;51.26;99710.75;4919048;29;20028;-70
2024/02/26 08:54:49;;;;;;;1.80;1.05;;;;;;;12.82;50.90;99707.03;4920515;29;20028;-70
2024/02/26 08:57:15;;;;;;;1.25;0.90;;;;;;;12.85;50.66;99712.06;4902482;29;20044;-70
2024/02/26 08:59:40;;;;;;;0.75;0.75;;;;;;;12.82;52.16;99715.09;4919849;29;20202;-70
2024/02/26 09:02:09;;;;;;;1.27;0.85;;;;;;;12.81;51.57;99711.56;4918954;29;20052;-69
2024/02/26 09:04:35;;;;;;;1.67;1.10;;;;;;;12.81;50.56;99725.00;4903329;29;20028;-70
2024/02/26 09:07:00;;;;;;;0.70;0.70;;;;;;;12.80;51.42;99726.03;4902818;29;20032;-69
2024/02/26 09:09:26;;;;;;;2.25;0.88;;;;;;;12.82;50.97;99731.22;4919959;29;20056;-70
2024/02/26 09:11:51;;;;;;;0.93;0.75;;;;;;;12.80;50.93;99735.94;4918458;29;20040;-69
2024/02/26 09:14:18;;;;;;;1.83;0.82;;;;;;;12.81;51.98;99734.94;4918538;29;20497;-69
2024/02/26 09:16:43;;;;;;;0.82;0.73;;;;;;;12.80;51.31;99744.00;4918202;29;20044;-70
2024/02/26 09:19:09;;;;;;;1.67;1.10;;;;;;;12.82;51.58;99744.66;4902866;29;20040;-70
2024/02/26 09:21:34;;;;;;;2.95;0.98;;;;;;;12.84;51.20;99753.41;4902727;29;20028;-70
2024/02/26 09:23:59;;;;;;;2.97;1.10;;;;;;;12.85;51.45;99755.06;4918030;29;20471;-69
2024/02/26 09:26:25;;;;;;;2.42;1.20;;;;;;;12.85;51.84;99747.00;4902649;29;20036;-69
2024/02/26 09:28:50;;;;;;;0.98;0.93;;;;;;;12.86;50.73;99762.13;4917938;29;20111;-70
2024/02/26 09:31:17;;;;;;;3.35;1.25;;;;;;;12.88;51.45;99761.94;4918485;29;20036;-69
2024/02/26 09:33:43;;;;;;;2.03;1.20;;;;;;;12.89;52.11;99769.84;4918667;29;20048;-70
2024/02/26 09:36:10;;;;;;;1.83;1.33;;;;;;;12.92;51.55;99769.50;4917854;29;20040;-69
2024/02/26 09:38:37;;;;;;;2.05;0.90;;;;;;;12.92;51.84;99784.78;4933337;29;20082;-70
2024/02/26 09:41:04;;;;;;;1.38;1.02;;;;;;;12.94;50.99;99772.88;4936559;29;20496;-70
2024/02/26 09:43:34;;;;;;;3.65;1.15;;;;;;;12.94;51.31;99772.88;4926261;29;20039;-69
2024/02/26 09:46:00;;;;;;;1.52;1.05;;;;;;;12.95;51.75;99781.78;4928225;29;20036;-69
2024/02/26 09:48:25;;;;;;;1.58;1.20;;;;;;;12.97;50.91;99783.28;4925888;29;20024;-70
2024/02/26 09:50:51;;;;;;;1.83;0.90;;;;;;;13.03;51.39;99793.34;4928220;29;20095;-69
2024/02/26 09:53:16;;;;;;;1.85;1.40;;;;;;;13.06;51.49;99787.63;4926248;29;20084;-69
2024/02/26 09:55:42;;;;;;;2.08;1.15;;;;;;;13.07;51.09;99794.69;4925876;29;20519;-69
2024/02/26 09:58:08;;;;;;;5.35;0.95;;;;;;;13.04;51.80;99789.63;4913767;29;20035;-70
2024/02/26 10:00:37;;;;;;;1.20;1.02;;;;;;;13.05;51.10;99804.75;4929484;29;20407;-69
2024/02/26 10:03:04;;;;;;;3.10;1.50;;;;;;;12.99;51.16;99800.06;4929063;29;20028;-70
2024/02/26 10:05:30;;;;;;;1.98;1.52;;;;;;;13.01;52.38;99803.41;4927541;29;20079;-70
2024/02/26 10:07:57;;;;;;;2.13;1.30;;;;;;;13.07;52.13;99804.59;4926272;29;20039;-69
2024/02/26 10:10:23;;;;;;;3.70;1.10;;;;;;;13.10;52.27;99815.03;4926063;29;20123;-69
2024/02/26 10:12:48;;;;;;;1.15;0.88;;;;;;;13.07;51.72;99820.72;4927473;29;20059;-69
2024/02/26 10:15:14;;;;;;;2.58;0.98;;;;;;;13.09;51.15;99822.25;4925259;29;20173;-69
2024/02/26 10:17:39;;;;;;;1.50;0.98;;;;;;;13.08;52.01;99819.75;4926118;29;20066;-69
2024/02/26 10:20:16;;;;;;;1.73;0.82;;;;;;;13.11;51.89;99825.63;4909096;29;20072;-70
2024/02/26 10:22:41;;;;;;;1.70;1.25;;;;;;;13.09;51.40;99832.19;4910080;29;20032;-70
2024/02/26 10:25:08;;;;;;;1.73;1.00;;;;;;;13.08;51.70;99838.56;4928188;28;20120;-70
2024/02/26 10:27:34;;;;;;;1.17;1.08;;;;;;;13.07;50.97;99831.47;4926449;28;20141;-70
2024/02/26 10:30:03;;;;;;;4.20;1.10;;;;;;;13.04;52.63;99842.56;4941359;29;20028;-70
2024/02/26 10:32:29;;;;;;;1.38;1.05;;;;;;;13.01;51.86;99849.13;4910350;29;20028;-70
2024/02/26 10:34:57;;;;;;;2.20;0.93;;;;;;;12.97;52.11;99847.78;4925201;29;20036;-70
2024/02/26 10:37:23;;;;;;;2.53;1.17;;;;;;;12.91;51.66;99847.59;4922431;29;20543;-70
2024/02/26 10:39:48;;;;;;;1.00;0.65;;;;;;;12.90;52.75;99851.31;4926602;29;20055;-70
2024/02/26 10:42:15;;;;;;;2.03;1.42;;;;;;;12.88;51.88;99848.78;4926017;29;20400;-70
2024/02/26 10:44:40;;;;;;;2.25;1.00;;;;;;;12.93;52.11;99856.34;4924923;29;20570;-69
2024/02/26 10:47:07;;;;;;;3.63;1.15;;;;;;;12.95;52.02;99855.19;4911097;29;20035;-69
2024/02/26 10:49:35;;;;;;;4.05;1.30;;;;;;;12.96;52.07;99862.22;4925438;29;20024;-69
2024/02/26 10:52:02;;;;;;;1.08;0.98;;;;;;;13.00;52.66;99870.81;4925338;29;20404;-69
2024/02/26 10:54:29;;;;;;;2.75;1.70;;;;;;;13.01;52.03;99886.75;4910431;29;20399;-69
2024/02/26 10:56:56;;;;;;;1.42;0.95;;;;;;;13.03;51.15;99884.75;4925006;29;20036;-70
2024/02/26 10:59:22;;;;;;;6.32;1.23;;;;;;;13.07;52.04;99886.13;4924782;29;20042;-69
2024/02/26 11:01:48;;;;;;;1.83;1.17;;;;;;;13.11;51.59;99892.84;4926304;29;20470;-69
2024/02/26 11:04:15;;;;;;;2.95;1.17;;;;;;;13.14;51.41;99891.66;4927648;29;20500;-69
2024/02/26 11:06:41;;;;;;;1.10;0.98;;;;;;;13.22;52.34;99899.72;4925537;29;20377;-69
2024/02/26 11:09:06;;;;;;;1.98;1.08;;;;;;;13.24;51.80;99895.84;4924283;29;20035;-69
2024/02/26 11:11:34;;;;;;;3.67;1.30;;;;;;;13.31;52.34;99898.72;4927740;29;20040;-69
2024/02/26 11:14:01;;;;;;;1.63;1.10;;;;;;;13.34;52.34;99904.59;4926833;29;20032;-69
2024/02/26 11:16:27;;;;;;;2.25;1.45;;;;;;;13.39;52.39;99915.69;4927240;29;20032;-68
2024/02/26 11:18:55;;;;;;;2.10;1.23;;;;;;;13.43;51.38;99915.34;4924602;29;20047;-68
2024/02/26 11:21:38;;;;;;;3.60;1.40;;;;;;;13.45;52.18;99921.41;4925115;29;20060;-69
2024/02/26 11:24:05;;;;;;;2.10;1.00;;;;;;;13.53;52.37;99924.94;4910596;29;20442;-69
2024/02/26 11:26:31;;;;;;;1.42;1.13;;;;;;;13.56;51.36;99921.06;4925619;29;20040;-70